createdAt,value
2022-10-06T00:01:12.754Z,16.2
2022-10-06T00:07:04.127Z,16.1
2022-10-06T00:12:54.696Z,16.2
2022-10-06T00:18:46.259Z,16.1
2022-10-06T00:24:37.844Z,16.1
2022-10-06T00:30:27.855Z,16
2022-10-06T00:36:18.890Z,16
2022-10-06T00:42:09.169Z,15.7
2022-10-06T00:48:00.166Z,15.7
2022-10-06T00:53:52.597Z,15.6
2022-10-06T00:59:43.324Z,15.6
2022-10-06T01:05:34.404Z,15.6
2022-10-06T01:11:25.619Z,15.7
2022-10-06T01:17:15.973Z,15.6
2022-10-06T01:23:07.384Z,15.6
2022-10-06T01:28:58.556Z,15.5
2022-10-06T01:34:49.290Z,15.5
2022-10-06T01:40:40.350Z,15.5
2022-10-06T01:46:31.065Z,15.5
2022-10-06T01:52:23.883Z,15.4
2022-10-06T01:58:14.861Z,15.4
2022-10-06T02:04:05.502Z,15.4
2022-10-06T02:09:56.588Z,15.4
2022-10-06T02:15:47.757Z,15.3
2022-10-06T02:21:38.005Z,15.2
2022-10-06T02:27:26.892Z,15.1
2022-10-06T02:33:16.875Z,15
2022-10-06T02:39:07.908Z,15
2022-10-06T02:44:58.469Z,14.9
2022-10-06T02:50:49.806Z,14.8
2022-10-06T02:56:40.950Z,14.7
2022-10-06T03:02:32.355Z,14.6
2022-10-06T03:08:22.155Z,14.4
2022-10-06T03:14:19.221Z,14.4
2022-10-06T03:20:10.694Z,14.2
2022-10-06T03:26:00.543Z,14.1
2022-10-06T03:31:49.695Z,14
2022-10-06T03:37:40.009Z,14
2022-10-06T03:43:30.222Z,14.1
2022-10-06T03:49:19.772Z,13.9
2022-10-06T03:55:09.585Z,13.7
2022-10-06T04:00:59.491Z,13.7
2022-10-06T04:06:50.064Z,13.6
2022-10-06T04:12:40.803Z,13.5
2022-10-06T04:18:30.370Z,13.6
2022-10-06T04:24:20.929Z,13.4
2022-10-06T04:30:10.870Z,13.3
2022-10-06T04:35:59.902Z,13.2
2022-10-06T04:41:48.780Z,13.1
2022-10-06T04:47:37.657Z,13.1
2022-10-06T04:53:27.615Z,12.9
2022-10-06T04:59:17.821Z,12.9
2022-10-06T05:05:07.127Z,13
2022-10-06T05:11:07.104Z,12.8
2022-10-06T05:17:48.001Z,12.6
2022-10-06T05:24:00.701Z,12.6
2022-10-06T05:30:04.693Z,12.7
2022-10-06T05:48:40.491Z,12.4
2022-10-06T05:54:58.752Z,12.2
2022-10-06T06:01:16.565Z,12.1
2022-10-06T06:07:15.857Z,12.1
2022-10-06T06:13:46.857Z,12.2
2022-10-06T06:19:50.886Z,12.1
2022-10-06T06:32:21.494Z,12.3
2022-10-06T06:44:44.234Z,11.9
2022-10-06T06:50:50.313Z,12.1
2022-10-06T06:56:50.663Z,11.9
2022-10-06T07:02:47.221Z,12.2
2022-10-06T07:08:39.665Z,12.4
2022-10-06T07:14:37.182Z,12.4
2022-10-06T07:20:42.171Z,12.5
2022-10-06T07:26:38.457Z,12.5
2022-10-06T07:32:33.524Z,12.4
2022-10-06T07:38:27.635Z,12.5
2022-10-06T07:44:21.530Z,12.6
2022-10-06T07:50:13.638Z,12.7
2022-10-06T07:56:07.814Z,12.8
2022-10-06T08:02:03.149Z,12.9
2022-10-06T08:08:01.193Z,12.9
2022-10-06T08:13:56.993Z,13
2022-10-06T08:19:50.039Z,13.1
2022-10-06T08:25:42.245Z,13.3
2022-10-06T08:31:37.755Z,13.3
2022-10-06T08:37:31.251Z,13.3
2022-10-06T08:43:33.720Z,13.5
2022-10-06T08:56:00.278Z,13.9
2022-10-06T09:02:02.356Z,13.9
2022-10-06T09:07:55.564Z,14
2022-10-06T09:14:00.714Z,14.1
2022-10-06T09:19:53.692Z,14.1
2022-10-06T09:25:55.144Z,14.2
2022-10-06T09:31:53.199Z,14.4
2022-10-06T09:37:45.543Z,14.4
2022-10-06T09:43:56.603Z,14.5
2022-10-06T09:49:50.205Z,14.6
2022-10-06T09:55:44.554Z,14.8
2022-10-06T10:01:37.013Z,14.9
2022-10-06T10:07:27.312Z,14.9
2022-10-06T10:13:19.816Z,15.2
2022-10-06T10:19:11.846Z,15.1
2022-10-06T10:25:03.986Z,15.2
2022-10-06T10:30:54.772Z,15.4
2022-10-06T10:36:45.366Z,15.8
2022-10-06T10:42:35.719Z,15.6
2022-10-06T10:48:27.049Z,15.7
2022-10-06T10:54:18.484Z,15.7
2022-10-06T11:00:12.041Z,15.8
2022-10-06T11:06:05.892Z,16.1
2022-10-06T11:11:57.208Z,15.9
2022-10-06T11:17:51.788Z,16.2
2022-10-06T11:23:42.582Z,16.3
2022-10-06T11:29:32.171Z,16.5
2022-10-06T11:35:24.481Z,16.6
2022-10-06T11:41:17.448Z,16.6
2022-10-06T11:47:09.977Z,16.6
2022-10-06T11:53:00.614Z,16.9
2022-10-06T11:58:51.432Z,16.9
2022-10-06T12:04:43.607Z,16.9
2022-10-06T12:10:35.000Z,16.8
2022-10-06T12:23:07.413Z,17.3
2022-10-06T12:28:58.725Z,17.3
2022-10-06T12:36:00.645Z,17.5
2022-10-06T12:41:50.660Z,17.3
2022-10-06T12:47:46.466Z,17.4
2022-10-06T12:53:37.425Z,17.5
2022-10-06T12:59:30.238Z,17.7
2022-10-06T13:05:22.211Z,18
2022-10-06T13:11:13.341Z,17.3
2022-10-06T13:17:05.242Z,17.7
2022-10-06T13:22:56.263Z,18.1
2022-10-06T13:28:48.397Z,17.9
2022-10-06T13:34:39.320Z,18.1
2022-10-06T13:40:45.775Z,17.9
2022-10-06T13:46:34.673Z,18.4
2022-10-06T13:52:25.977Z,18.2
2022-10-06T13:58:16.317Z,18.4
2022-10-06T14:04:06.960Z,18.2
2022-10-06T14:09:57.722Z,18
2022-10-06T14:15:50.096Z,18.1
2022-10-06T14:21:40.984Z,18.3
2022-10-06T14:27:32.854Z,18
2022-10-06T14:33:23.649Z,17.8
2022-10-06T14:39:13.837Z,18.1
2022-10-06T14:45:04.959Z,18.4
2022-10-06T14:50:55.952Z,18.3
2022-10-06T14:56:46.681Z,18.2
2022-10-06T15:02:38.796Z,18.2
2022-10-06T15:08:31.441Z,18.3
2022-10-06T15:14:23.997Z,18.1
2022-10-06T15:20:16.907Z,18
2022-10-06T15:26:09.383Z,18
2022-10-06T15:32:01.398Z,18
2022-10-06T15:39:03.585Z,18
2022-10-06T15:44:52.981Z,18
2022-10-06T15:50:46.787Z,18
2022-10-06T15:56:38.598Z,18
2022-10-06T16:02:29.887Z,17.8
2022-10-06T16:08:21.905Z,17.8
2022-10-06T16:14:12.354Z,17.8
2022-10-06T16:20:02.913Z,17.5
2022-10-06T16:25:53.955Z,17.2
2022-10-06T16:31:44.788Z,17
2022-10-06T16:37:36.871Z,16.8
2022-10-06T16:43:27.460Z,16.4
2022-10-06T16:49:19.410Z,16.2
2022-10-06T16:55:09.969Z,15.9
2022-10-06T17:01:00.605Z,15.8
2022-10-06T17:06:51.230Z,15.7
2022-10-06T17:12:41.097Z,15.6
2022-10-06T17:18:31.493Z,15.4
2022-10-06T17:24:21.601Z,14.9
2022-10-06T17:30:11.987Z,14.8
2022-10-06T17:36:01.009Z,14.4
2022-10-06T17:41:50.189Z,14.7
2022-10-06T17:47:39.083Z,14.3
2022-10-06T17:53:29.466Z,13.9
2022-10-06T17:59:18.429Z,13.8
2022-10-06T18:05:08.234Z,13.9
2022-10-06T18:10:59.725Z,13.5
2022-10-06T18:16:53.624Z,13.6
2022-10-06T18:22:44.536Z,13.4
2022-10-06T18:28:34.884Z,13.3
2022-10-06T18:41:58.910Z,12.8
2022-10-06T18:47:49.371Z,12.6
2022-10-06T18:53:39.222Z,12.7
2022-10-06T18:59:29.674Z,12.7
2022-10-06T19:05:19.651Z,12.5
2022-10-06T19:11:09.213Z,12.4
2022-10-06T19:16:58.455Z,12.2
2022-10-06T19:22:49.244Z,12.3
2022-10-06T19:28:38.604Z,12.4
2022-10-06T19:34:28.782Z,12.2
2022-10-06T19:40:19.846Z,11.7
2022-10-06T19:46:09.415Z,11.8
2022-10-06T19:51:59.918Z,11.8
2022-10-06T19:57:49.511Z,11.8
2022-10-06T20:03:39.357Z,11.7
2022-10-06T20:09:31.304Z,11.6
2022-10-06T20:15:20.848Z,11.5
2022-10-06T20:21:10.637Z,11.2
2022-10-06T20:26:59.993Z,11.4
2022-10-06T20:32:49.990Z,11.4
2022-10-06T20:38:39.252Z,11.4
2022-10-06T20:44:29.142Z,11
2022-10-06T20:50:19.025Z,11
2022-10-06T20:56:09.842Z,11.1
2022-10-06T21:02:00.057Z,11
2022-10-06T21:07:53.512Z,10.6
2022-10-06T21:13:46.120Z,10.5
2022-10-06T21:19:39.001Z,10.8
2022-10-06T21:25:31.913Z,10.6
2022-10-06T21:31:25.375Z,10.6
2022-10-06T21:37:17.710Z,10.4
2022-10-06T21:43:12.078Z,10.6
2022-10-06T23:44:09.157Z,9
2022-10-06T23:50:16.185Z,9.1
